createdAt,value
2018-01-27T00:00:29.058Z,19.40
2018-01-27T00:01:29.073Z,19.90
2018-01-27T00:02:29.089Z,19.70
2018-01-27T00:03:29.109Z,20.50
2018-01-27T00:04:29.120Z,20.40
2018-01-27T00:05:29.138Z,20.70
2018-01-27T00:06:29.159Z,20.80
2018-01-27T00:07:29.179Z,20.40
2018-01-27T00:08:29.197Z,21.00
2018-01-27T00:09:29.205Z,21.90
2018-01-27T00:10:29.227Z,22.00
2018-01-27T00:11:29.241Z,20.50
2018-01-27T00:12:29.259Z,20.60
2018-01-27T00:13:29.281Z,20.40
2018-01-27T00:14:29.291Z,19.90
2018-01-27T00:15:29.311Z,20.60
2018-01-27T00:16:29.328Z,20.40
2018-01-27T00:17:29.343Z,21.90
2018-01-27T00:18:29.361Z,21.00
2018-01-27T00:19:29.377Z,22.30
2018-01-27T00:20:29.391Z,22.20
2018-01-27T00:21:29.415Z,23.50
2018-01-27T00:22:29.422Z,23.20
2018-01-27T00:23:29.445Z,23.50
2018-01-27T00:24:29.462Z,24.10
2018-01-27T00:25:29.479Z,23.10
2018-01-27T00:26:29.498Z,24.30
2018-01-27T00:27:29.512Z,22.40
2018-01-27T00:28:29.530Z,24.00
2018-01-27T00:29:29.550Z,25.60
2018-01-27T00:30:29.561Z,25.30
2018-01-27T00:31:29.579Z,24.00
2018-01-27T00:32:29.592Z,24.00
2018-01-27T00:33:29.614Z,24.30
2018-01-27T00:34:29.631Z,24.50
2018-01-27T00:35:29.647Z,23.90
2018-01-27T00:36:29.663Z,23.60
2018-01-27T00:37:29.676Z,23.40
2018-01-27T00:38:29.697Z,23.60
2018-01-27T00:39:29.712Z,23.40
2018-01-27T00:40:29.733Z,23.20
2018-01-27T00:41:29.746Z,24.40
2018-01-27T00:42:29.763Z,24.00
2018-01-27T00:43:29.776Z,23.40
2018-01-27T00:44:29.797Z,22.20
2018-01-27T00:45:29.813Z,22.80
2018-01-27T00:46:29.829Z,23.60
2018-01-27T00:47:29.847Z,23.90
2018-01-27T00:48:29.862Z,23.60
2018-01-27T00:49:29.879Z,24.00
2018-01-27T00:50:29.893Z,23.60
2018-01-27T00:51:29.911Z,24.30
2018-01-27T00:52:29.926Z,24.00
2018-01-27T00:53:29.943Z,24.30
2018-01-27T00:54:29.960Z,24.00
2018-01-27T00:55:29.979Z,24.70
2018-01-27T00:56:29.993Z,24.40
2018-01-27T00:57:30.010Z,23.90
2018-01-27T00:58:30.027Z,23.80
2018-01-27T00:59:30.041Z,24.30
2018-01-27T01:00:30.055Z,23.80
2018-01-27T01:01:30.076Z,23.90
2018-01-27T01:02:30.095Z,23.80
2018-01-27T01:03:30.104Z,23.80
2018-01-27T01:04:30.124Z,23.60
2018-01-27T01:05:30.141Z,23.60
2018-01-27T01:06:30.155Z,23.40
2018-01-27T01:07:30.176Z,23.40
2018-01-27T01:08:30.191Z,22.60
2018-01-27T01:09:30.207Z,23.20
2018-01-27T01:10:30.227Z,23.80
2018-01-27T01:11:30.236Z,23.70
2018-01-27T01:12:30.257Z,25.40
2018-01-27T01:13:30.273Z,24.00
2018-01-27T01:14:30.286Z,23.60
2018-01-27T01:15:30.303Z,24.00
2018-01-27T01:16:30.322Z,24.80
2018-01-27T01:17:30.339Z,25.40
2018-01-27T01:18:30.356Z,25.90
2018-01-27T01:19:30.370Z,25.00
2018-01-27T01:20:30.391Z,24.90
2018-01-27T01:21:30.403Z,24.60
2018-01-27T01:22:30.422Z,24.80
2018-01-27T01:23:30.436Z,25.00
2018-01-27T01:24:30.449Z,25.50
2018-01-27T01:25:30.468Z,26.10
2018-01-27T01:26:30.486Z,25.00
2018-01-27T01:27:30.502Z,24.50
2018-01-27T01:28:30.518Z,25.30
2018-01-27T01:29:30.536Z,24.80
2018-01-27T01:30:30.552Z,25.60
2018-01-27T01:31:30.565Z,26.20
2018-01-27T01:32:30.583Z,26.40
2018-01-27T01:33:30.601Z,25.40
2018-01-27T01:34:30.616Z,26.10
2018-01-27T01:35:30.630Z,24.80
2018-01-27T01:36:30.649Z,24.30
2018-01-27T01:37:30.672Z,24.70
2018-01-27T01:38:30.682Z,24.40
2018-01-27T01:39:30.699Z,23.30
2018-01-27T01:40:30.714Z,23.20
2018-01-27T01:41:30.728Z,23.70
2018-01-27T01:42:30.746Z,22.80
2018-01-27T01:43:30.762Z,23.00
2018-01-27T01:44:30.775Z,25.00
2018-01-27T01:45:30.800Z,24.00
2018-01-27T01:46:30.811Z,24.20
2018-01-27T01:47:30.826Z,25.30
2018-01-27T01:48:30.842Z,25.40
2018-01-27T01:49:30.859Z,25.80
2018-01-27T01:50:30.873Z,25.00
2018-01-27T01:51:30.891Z,24.80
2018-01-27T01:52:30.910Z,24.90
2018-01-27T01:53:30.925Z,25.10
2018-01-27T01:54:30.940Z,25.20
2018-01-27T01:55:30.962Z,23.50
2018-01-27T01:56:30.978Z,23.30
2018-01-27T01:57:30.990Z,24.40
2018-01-27T01:58:31.007Z,23.20
2018-01-27T01:59:31.022Z,23.70
2018-01-27T02:00:31.040Z,23.50
2018-01-27T02:01:31.055Z,23.10
2018-01-27T02:02:31.068Z,25.10
2018-01-27T02:03:31.087Z,25.10
2018-01-27T02:04:31.101Z,24.30
2018-01-27T02:05:31.118Z,25.40
2018-01-27T02:06:31.135Z,25.80
2018-01-27T02:07:31.148Z,25.80
2018-01-27T02:08:31.170Z,25.00
2018-01-27T02:09:31.179Z,24.50
2018-01-27T02:10:31.198Z,24.90
2018-01-27T02:11:31.214Z,24.40
2018-01-27T02:12:31.229Z,24.80
2018-01-27T02:13:31.245Z,24.80
2018-01-27T02:14:31.263Z,25.60
2018-01-27T02:15:31.274Z,25.20
2018-01-27T02:16:31.290Z,25.50
2018-01-27T02:17:31.309Z,25.00
2018-01-27T02:18:31.326Z,23.90
2018-01-27T02:19:31.350Z,24.40
2018-01-27T02:20:31.361Z,23.90
2018-01-27T02:21:31.378Z,23.40
2018-01-27T02:22:31.387Z,24.60
2018-01-27T02:23:31.408Z,24.50
2018-01-27T02:24:31.424Z,23.50
2018-01-27T02:25:31.442Z,24.00
2018-01-27T02:26:31.456Z,23.00
2018-01-27T02:27:31.473Z,24.60
2018-01-27T02:28:31.486Z,23.70
2018-01-27T02:29:31.503Z,24.10
2018-01-27T02:30:31.530Z,23.40
2018-01-27T02:31:31.538Z,25.10
2018-01-27T02:32:31.551Z,23.50
2018-01-27T02:33:31.573Z,25.80
2018-01-27T02:34:31.584Z,25.10
2018-01-27T02:35:31.610Z,24.20
2018-01-27T02:36:31.618Z,24.80
2018-01-27T02:37:31.634Z,26.30
2018-01-27T02:38:31.651Z,25.80
2018-01-27T02:39:31.665Z,24.50
2018-01-27T02:40:31.680Z,26.10
2018-01-27T02:41:31.699Z,25.00
2018-01-27T02:42:31.766Z,25.90
2018-01-27T02:43:31.732Z,24.60
2018-01-27T02:44:31.751Z,25.00
2018-01-27T02:45:31.765Z,25.10
2018-01-27T02:46:31.781Z,25.10
2018-01-27T02:47:31.794Z,24.60
2018-01-27T02:48:31.812Z,24.60
2018-01-27T02:49:31.830Z,25.50
2018-01-27T02:50:31.849Z,26.10
2018-01-27T02:51:31.862Z,25.50
2018-01-27T02:52:31.881Z,25.30
2018-01-27T02:53:31.893Z,26.20
2018-01-27T02:54:31.914Z,24.90
2018-01-27T02:55:31.930Z,26.10
2018-01-27T02:56:31.951Z,25.60
2018-01-27T02:57:31.960Z,25.00
2018-01-27T02:58:31.977Z,26.10
2018-01-27T02:59:32.001Z,26.30
2018-01-27T03:00:32.012Z,26.50
2018-01-27T03:01:32.027Z,27.20
2018-01-27T03:02:32.043Z,26.40
2018-01-27T03:03:32.056Z,27.70
2018-01-27T03:04:32.078Z,28.00
2018-01-27T03:05:32.093Z,28.40
2018-01-27T03:06:32.104Z,28.40
2018-01-27T03:07:32.125Z,28.00
2018-01-27T03:08:32.137Z,26.90
2018-01-27T03:09:32.158Z,28.30
2018-01-27T03:10:32.167Z,26.60
2018-01-27T03:11:32.185Z,26.60
2018-01-27T03:12:32.203Z,29.30
2018-01-27T03:13:32.222Z,28.60
2018-01-27T03:14:32.235Z,31.50
2018-01-27T03:15:32.254Z,31.10
2018-01-27T03:16:32.269Z,29.30
2018-01-27T03:17:32.283Z,30.10
2018-01-27T03:18:32.304Z,30.90
2018-01-27T03:19:32.313Z,31.10
2018-01-27T03:20:32.334Z,29.40
2018-01-27T03:21:32.349Z,29.30
2018-01-27T03:22:32.365Z,30.30
2018-01-27T03:23:32.381Z,29.20
2018-01-27T03:24:32.395Z,29.40
2018-01-27T03:25:32.411Z,28.30
2018-01-27T03:26:32.428Z,28.90
2018-01-27T03:27:32.446Z,28.50
2018-01-27T03:28:32.462Z,30.00
2018-01-27T03:29:32.477Z,31.30
2018-01-27T03:30:32.488Z,30.20
2018-01-27T03:31:32.510Z,30.20
2018-01-27T03:32:32.517Z,28.90
2018-01-27T03:33:32.535Z,28.30
2018-01-27T03:34:32.555Z,31.50
2018-01-27T03:35:32.570Z,30.50
2018-01-27T03:36:32.580Z,29.00
2018-01-27T03:37:32.603Z,28.30
2018-01-27T03:38:32.618Z,29.00
2018-01-27T03:39:32.632Z,29.70
2018-01-27T03:40:32.653Z,28.30
2018-01-27T03:41:32.663Z,27.60
2018-01-27T03:42:32.680Z,30.00
2018-01-27T03:43:32.694Z,30.00
2018-01-27T03:44:32.714Z,31.70
2018-01-27T03:45:32.723Z,29.30
2018-01-27T03:46:32.741Z,29.30
2018-01-27T03:47:32.760Z,28.60
2018-01-27T03:48:32.773Z,28.50
2018-01-27T03:49:32.788Z,28.10
2018-01-27T03:50:32.810Z,26.80
2018-01-27T03:51:32.821Z,26.60
2018-01-27T03:52:32.979Z,26.40
2018-01-27T03:53:32.863Z,25.10
2018-01-27T03:54:32.866Z,26.00
2018-01-27T03:55:32.881Z,25.20
2018-01-27T03:56:32.900Z,27.20
2018-01-27T03:57:32.915Z,26.60
2018-01-27T03:58:32.932Z,26.70
2018-01-27T03:59:32.945Z,27.60
2018-01-27T04:00:32.961Z,29.10
2018-01-27T04:01:32.979Z,28.10
2018-01-27T04:02:32.998Z,27.60
2018-01-27T04:03:33.010Z,27.90
2018-01-27T04:04:33.026Z,30.50
2018-01-27T04:05:33.038Z,30.30
2018-01-27T04:06:33.058Z,31.90
2018-01-27T04:07:33.074Z,30.10
2018-01-27T04:08:33.094Z,33.20
2018-01-27T04:09:33.107Z,32.50
2018-01-27T04:10:33.118Z,32.00
2018-01-27T04:11:33.139Z,33.10
2018-01-27T04:12:33.159Z,33.50
2018-01-27T04:13:33.171Z,32.20
2018-01-27T04:14:33.191Z,33.60
2018-01-27T04:15:33.198Z,34.80
2018-01-27T04:16:33.213Z,35.30
2018-01-27T04:17:33.236Z,33.50
2018-01-27T04:18:33.253Z,34.60
2018-01-27T04:19:33.266Z,34.90
2018-01-27T04:20:33.278Z,34.60
2018-01-27T04:21:33.294Z,35.10
2018-01-27T04:22:33.313Z,34.50
2018-01-27T04:23:33.327Z,34.00
2018-01-27T04:24:33.342Z,34.00
2018-01-27T04:25:33.362Z,33.90
2018-01-27T04:26:33.373Z,33.80
2018-01-27T04:27:33.396Z,34.10
2018-01-27T04:28:33.405Z,33.10
2018-01-27T04:29:33.422Z,32.90
2018-01-27T04:30:33.447Z,34.20
2018-01-27T04:31:33.455Z,33.10
2018-01-27T04:32:33.470Z,33.30
2018-01-27T04:33:33.490Z,33.00
2018-01-27T04:34:33.506Z,32.60
2018-01-27T04:35:33.543Z,33.00
2018-01-27T04:36:33.538Z,34.10
2018-01-27T04:37:33.554Z,33.50
2018-01-27T04:38:33.576Z,33.40
2018-01-27T04:39:33.583Z,32.90
2018-01-27T04:40:33.599Z,33.90
2018-01-27T04:41:33.622Z,32.50
2018-01-27T04:42:33.652Z,33.10
2018-01-27T04:43:33.649Z,32.40
2018-01-27T04:44:33.665Z,32.70
2018-01-27T04:45:33.680Z,34.20
2018-01-27T04:46:33.698Z,33.90
2018-01-27T04:47:33.713Z,33.90
2018-01-27T04:48:33.726Z,33.10
2018-01-27T04:49:33.744Z,33.50
2018-01-27T04:50:33.763Z,33.50
2018-01-27T04:51:33.780Z,33.60
2018-01-27T04:52:33.798Z,33.50
2018-01-27T04:53:33.807Z,33.70
2018-01-27T04:54:33.826Z,34.60
2018-01-27T04:55:33.842Z,34.30
2018-01-27T04:56:33.858Z,34.80
2018-01-27T04:57:33.876Z,34.30
2018-01-27T04:58:33.894Z,34.70
2018-01-27T04:59:33.905Z,34.10
2018-01-27T05:00:33.925Z,36.00
2018-01-27T05:01:33.940Z,35.20
2018-01-27T05:02:33.955Z,34.70
2018-01-27T05:03:33.978Z,34.90
2018-01-27T05:04:33.989Z,36.40
2018-01-27T05:05:34.002Z,36.10
2018-01-27T05:06:34.023Z,35.50
2018-01-27T05:07:34.038Z,36.90
2018-01-27T05:08:34.051Z,36.60
2018-01-27T05:09:34.068Z,35.40
2018-01-27T05:10:34.086Z,36.00
2018-01-27T05:11:34.103Z,35.80
2018-01-27T05:12:34.120Z,37.20
2018-01-27T05:13:34.133Z,37.20
2018-01-27T05:14:34.149Z,35.80
2018-01-27T05:15:34.174Z,35.40
2018-01-27T05:16:34.182Z,35.80
2018-01-27T05:17:34.199Z,36.00
2018-01-27T05:18:34.217Z,36.20
2018-01-27T05:19:34.231Z,36.60
2018-01-27T05:20:34.245Z,36.10
2018-01-27T05:21:34.268Z,35.70
2018-01-27T05:22:34.286Z,35.00
2018-01-27T05:23:34.299Z,36.80
2018-01-27T05:24:34.315Z,35.40
2018-01-27T05:25:34.332Z,36.30
2018-01-27T05:26:34.348Z,36.30
2018-01-27T05:27:34.363Z,37.00
2018-01-27T05:28:34.377Z,36.30
2018-01-27T05:29:34.396Z,36.90
2018-01-27T05:30:34.411Z,37.20
2018-01-27T05:31:34.431Z,36.90
2018-01-27T05:32:34.444Z,36.20
2018-01-27T05:33:34.459Z,37.10
2018-01-27T05:34:34.478Z,37.60
2018-01-27T05:35:34.501Z,37.20
2018-01-27T05:36:34.514Z,36.50
2018-01-27T05:37:34.529Z,38.30
2018-01-27T05:38:34.544Z,37.00
2018-01-27T05:39:34.565Z,37.50
2018-01-27T05:40:34.578Z,37.70
2018-01-27T05:41:34.595Z,38.60
2018-01-27T05:42:34.608Z,39.70
2018-01-27T05:43:34.625Z,38.40
2018-01-27T05:44:34.642Z,38.60
2018-01-27T05:45:34.659Z,38.10
2018-01-27T05:46:34.680Z,38.60
2018-01-27T05:47:34.693Z,39.50
2018-01-27T05:48:34.712Z,40.60
2018-01-27T05:49:34.729Z,39.70
2018-01-27T05:50:34.740Z,40.70
2018-01-27T05:51:34.757Z,40.10
2018-01-27T05:52:34.773Z,40.10
2018-01-27T05:53:34.794Z,39.70
2018-01-27T05:54:34.816Z,40.00
2018-01-27T05:55:34.832Z,41.30
2018-01-27T05:56:34.842Z,40.00
2018-01-27T05:57:34.859Z,42.10
2018-01-27T05:58:34.877Z,41.40
2018-01-27T05:59:34.892Z,43.10
2018-01-27T06:00:34.906Z,41.50
2018-01-27T06:01:34.925Z,41.30
2018-01-27T06:02:34.945Z,42.40
2018-01-27T06:03:34.958Z,41.50
2018-01-27T06:04:34.977Z,42.40
2018-01-27T06:05:34.993Z,42.10
2018-01-27T06:06:35.012Z,41.60
2018-01-27T06:07:35.025Z,43.10
2018-01-27T06:08:35.039Z,41.00
2018-01-27T06:09:35.056Z,42.80
2018-01-27T06:10:35.075Z,43.00
2018-01-27T06:11:35.093Z,42.60
2018-01-27T06:12:35.104Z,42.80
2018-01-27T06:13:35.126Z,43.60
2018-01-27T06:14:35.139Z,43.00
2018-01-27T06:15:35.156Z,42.20
2018-01-27T06:16:35.173Z,43.10
2018-01-27T06:17:35.193Z,42.50
2018-01-27T06:18:35.212Z,43.30
2018-01-27T06:19:35.223Z,43.30
2018-01-27T06:20:35.237Z,43.40
2018-01-27T06:21:35.260Z,43.00
2018-01-27T06:22:35.269Z,43.20
2018-01-27T06:23:35.289Z,43.00
2018-01-27T06:24:35.303Z,43.50
2018-01-27T06:25:35.325Z,43.90
2018-01-27T06:26:35.342Z,44.70
2018-01-27T06:27:35.358Z,43.00
2018-01-27T06:28:35.373Z,44.80
2018-01-27T06:29:35.390Z,44.40
2018-01-27T06:30:35.408Z,45.10
2018-01-27T06:31:35.427Z,44.10
2018-01-27T06:32:35.449Z,43.70
2018-01-27T06:33:35.457Z,43.80
2018-01-27T06:34:35.473Z,42.40
2018-01-27T06:35:35.490Z,44.10
2018-01-27T06:36:35.506Z,42.60
2018-01-27T06:37:35.520Z,42.70
2018-01-27T06:38:35.539Z,44.40
2018-01-27T06:39:35.559Z,43.70
2018-01-27T06:40:35.615Z,45.10
2018-01-27T06:41:35.590Z,44.70
2018-01-27T06:42:35.605Z,44.90
2018-01-27T06:43:35.622Z,42.90
2018-01-27T06:44:35.634Z,45.40
2018-01-27T06:45:35.657Z,44.40
2018-01-27T06:46:35.672Z,45.50
2018-01-27T06:47:35.690Z,44.00
2018-01-27T06:48:35.712Z,45.20
2018-01-27T06:49:35.721Z,44.40
2018-01-27T06:50:35.879Z,43.90
2018-01-27T06:51:35.755Z,43.60
2018-01-27T06:52:35.776Z,43.90
2018-01-27T06:53:35.794Z,44.30
2018-01-27T06:54:35.802Z,44.00
2018-01-27T06:55:35.823Z,43.30
2018-01-27T06:56:35.834Z,43.50
2018-01-27T06:57:35.854Z,44.00
2018-01-27T06:58:35.872Z,42.40
2018-01-27T06:59:35.886Z,44.00
2018-01-27T07:00:35.901Z,44.10
2018-01-27T07:01:35.919Z,44.00
2018-01-27T07:02:35.936Z,43.90
2018-01-27T07:03:35.953Z,44.30
2018-01-27T07:04:35.970Z,45.50
2018-01-27T07:05:35.989Z,43.10
2018-01-27T07:06:36.002Z,45.00
2018-01-27T07:07:36.024Z,44.70
2018-01-27T07:08:36.042Z,44.90
2018-01-27T07:09:36.060Z,43.20
2018-01-27T07:10:36.080Z,44.60
2018-01-27T07:11:36.087Z,44.60
2018-01-27T07:12:36.109Z,43.80
2018-01-27T07:13:36.121Z,44.00
2018-01-27T07:14:36.133Z,45.20
2018-01-27T07:15:36.157Z,44.00
2018-01-27T07:16:36.168Z,44.90
2018-01-27T07:17:36.189Z,43.80
2018-01-27T07:18:36.207Z,43.80
2018-01-27T07:19:36.222Z,44.90
2018-01-27T07:20:36.235Z,44.70
2018-01-27T07:21:36.256Z,44.40
2018-01-27T07:22:36.271Z,43.40
2018-01-27T07:23:36.288Z,44.20
2018-01-27T07:24:36.302Z,45.10
2018-01-27T07:25:36.322Z,45.30
2018-01-27T07:26:36.336Z,43.60
2018-01-27T07:27:36.357Z,43.60
2018-01-27T07:28:36.366Z,44.00
2018-01-27T07:29:36.386Z,44.10
2018-01-27T07:30:36.404Z,43.70
2018-01-27T07:31:36.419Z,43.10
2018-01-27T07:32:36.435Z,43.20
2018-01-27T07:33:36.456Z,44.10
2018-01-27T07:34:36.467Z,43.40
2018-01-27T07:35:36.485Z,43.60
2018-01-27T07:36:36.501Z,43.30
2018-01-27T07:37:36.518Z,43.10
2018-01-27T07:38:36.540Z,42.20
2018-01-27T07:39:36.556Z,42.20
2018-01-27T07:40:36.571Z,42.40
2018-01-27T07:41:36.597Z,42.70
2018-01-27T07:42:36.604Z,41.30
2018-01-27T07:43:36.623Z,42.40
2018-01-27T07:44:36.637Z,43.20
2018-01-27T07:45:36.653Z,43.30
2018-01-27T07:46:36.668Z,41.00
2018-01-27T07:47:36.688Z,42.50
2018-01-27T07:48:36.709Z,42.20
2018-01-27T07:49:36.724Z,43.40
2018-01-27T07:50:36.738Z,43.50
2018-01-27T07:51:36.757Z,42.30
2018-01-27T07:52:36.810Z,43.00
2018-01-27T07:53:36.797Z,43.20
2018-01-27T07:54:36.803Z,42.40
2018-01-27T07:55:36.821Z,41.40
2018-01-27T07:56:36.838Z,42.90
2018-01-27T07:57:36.859Z,41.80
2018-01-27T07:58:36.873Z,42.70
2018-01-27T07:59:36.889Z,42.60
2018-01-27T08:00:36.905Z,42.60
2018-01-27T08:01:36.922Z,44.20
2018-01-27T08:02:36.940Z,42.20
2018-01-27T08:03:36.960Z,43.20
2018-01-27T08:04:36.970Z,43.20
2018-01-27T08:05:36.986Z,41.60
2018-01-27T08:06:37.005Z,43.10
2018-01-27T08:07:37.017Z,41.80
2018-01-27T08:08:37.036Z,42.80
2018-01-27T08:09:37.054Z,41.90
2018-01-27T08:10:37.071Z,44.40
2018-01-27T08:11:37.084Z,43.40
2018-01-27T08:12:37.100Z,42.90
2018-01-27T08:13:37.122Z,41.90
2018-01-27T08:14:37.143Z,43.30
2018-01-27T08:15:37.152Z,43.20
2018-01-27T08:16:37.173Z,43.40
2018-01-27T08:17:37.184Z,44.30
2018-01-27T08:18:37.208Z,43.00
2018-01-27T08:19:37.223Z,44.00
2018-01-27T08:20:37.235Z,43.10
2018-01-27T08:21:37.261Z,43.40
2018-01-27T08:22:37.272Z,43.20
2018-01-27T08:23:37.293Z,42.10
2018-01-27T08:24:37.319Z,42.90
2018-01-27T08:25:37.320Z,42.30
2018-01-27T08:26:37.340Z,41.70
2018-01-27T08:27:37.358Z,41.80
2018-01-27T08:28:37.370Z,41.00
2018-01-27T08:29:37.389Z,40.90
2018-01-27T08:30:37.405Z,40.50
2018-01-27T08:31:37.425Z,42.10
2018-01-27T08:32:37.441Z,41.90
2018-01-27T08:33:37.457Z,42.20
2018-01-27T08:34:37.477Z,40.40
2018-01-27T08:35:37.494Z,42.40
2018-01-27T08:36:37.510Z,41.10
2018-01-27T08:37:37.527Z,40.80
2018-01-27T08:38:37.556Z,41.10
2018-01-27T08:39:37.564Z,43.00
2018-01-27T08:40:37.583Z,43.20
2018-01-27T08:41:37.594Z,40.90
2018-01-27T08:42:37.615Z,42.00
2018-01-27T08:43:37.629Z,42.80
2018-01-27T08:44:37.645Z,41.60
2018-01-27T08:45:37.660Z,43.50
2018-01-27T08:46:37.683Z,43.30
2018-01-27T08:47:37.697Z,42.30
2018-01-27T08:48:37.714Z,43.50
2018-01-27T08:49:37.735Z,43.60
2018-01-27T08:50:37.748Z,42.80
2018-01-27T08:51:37.771Z,43.70
2018-01-27T08:52:37.787Z,44.30
2018-01-27T08:53:37.799Z,44.90
2018-01-27T08:54:37.818Z,44.80
2018-01-27T08:55:37.839Z,46.90
2018-01-27T08:56:37.855Z,42.60
2018-01-27T08:57:37.871Z,43.80
2018-01-27T08:58:37.887Z,44.20
2018-01-27T08:59:37.906Z,44.00
2018-01-27T09:00:39.336Z,42.80
2018-01-27T09:01:37.938Z,43.40
2018-01-27T09:02:37.956Z,44.20
2018-01-27T09:03:37.977Z,42.60
2018-01-27T09:04:37.990Z,43.00
2018-01-27T09:05:38.009Z,43.30
2018-01-27T09:06:38.025Z,43.60
2018-01-27T09:07:38.046Z,42.10
2018-01-27T09:08:38.060Z,42.30
2018-01-27T09:09:38.076Z,43.90
2018-01-27T09:10:38.095Z,43.30
2018-01-27T09:11:38.114Z,41.90
2018-01-27T09:12:38.132Z,41.80
2018-01-27T09:13:38.149Z,43.40
2018-01-27T09:14:38.164Z,42.80
2018-01-27T09:15:38.184Z,42.60
2018-01-27T09:16:38.202Z,41.30
2018-01-27T09:17:38.217Z,42.60
2018-01-27T09:18:38.233Z,42.80
2018-01-27T09:19:38.253Z,42.00
2018-01-27T09:20:38.267Z,41.60
2018-01-27T09:21:38.287Z,41.50
2018-01-27T09:22:38.301Z,40.60
2018-01-27T09:23:38.322Z,41.30
2018-01-27T09:24:38.392Z,41.40
2018-01-27T09:25:38.357Z,39.30
2018-01-27T09:26:38.376Z,40.20
2018-01-27T09:27:38.394Z,39.20
2018-01-27T09:28:38.409Z,38.10
2018-01-27T09:29:38.431Z,37.10
2018-01-27T09:30:38.446Z,37.30
2018-01-27T09:31:38.463Z,36.20
2018-01-27T09:32:38.478Z,34.30
2018-01-27T09:33:38.498Z,31.70
2018-01-27T09:34:38.512Z,32.00
2018-01-27T09:35:38.536Z,31.30
2018-01-27T09:36:38.554Z,30.30
2018-01-27T09:37:38.566Z,31.60
2018-01-27T09:38:38.592Z,31.40
2018-01-27T09:39:38.602Z,32.10
2018-01-27T09:40:38.622Z,31.70
2018-01-27T09:41:38.641Z,30.20
2018-01-27T09:42:38.659Z,30.00
2018-01-27T09:43:38.677Z,29.70
2018-01-27T09:44:38.695Z,29.50
2018-01-27T09:45:38.712Z,29.20
2018-01-27T09:46:38.728Z,30.40
2018-01-27T09:47:38.750Z,31.00
2018-01-27T09:48:38.766Z,30.00
2018-01-27T09:49:38.785Z,29.30
2018-01-27T09:50:38.800Z,29.60
2018-01-27T09:51:38.814Z,28.80
2018-01-27T09:52:38.840Z,29.50
2018-01-27T09:53:38.852Z,28.70
2018-01-27T09:54:38.878Z,28.60
2018-01-27T09:55:38.887Z,29.50
2018-01-27T09:56:38.908Z,30.00
2018-01-27T09:57:38.931Z,29.70
2018-01-27T09:58:38.955Z,30.30
2018-01-27T09:59:38.964Z,31.00
2018-01-27T10:00:38.976Z,31.20
2018-01-27T10:01:38.991Z,31.10
2018-01-27T10:02:39.012Z,30.80
2018-01-27T10:03:39.030Z,31.80
2018-01-27T10:04:39.047Z,30.90
2018-01-27T10:05:39.069Z,32.10
2018-01-27T10:06:39.082Z,31.10
2018-01-27T10:07:39.098Z,31.90
2018-01-27T10:08:39.123Z,31.20
2018-01-27T10:09:39.133Z,31.80
2018-01-27T10:10:39.151Z,32.50
2018-01-27T10:11:39.174Z,31.90
2018-01-27T10:12:39.186Z,32.40
2018-01-27T10:13:39.207Z,32.00
2018-01-27T10:14:39.226Z,32.50
2018-01-27T10:15:39.244Z,32.50
2018-01-27T10:16:39.262Z,32.20
2018-01-27T10:17:39.277Z,31.50
2018-01-27T10:18:39.301Z,32.70
2018-01-27T10:19:39.318Z,31.90
2018-01-27T10:20:39.332Z,32.40
2018-01-27T10:21:39.355Z,31.00
2018-01-27T10:22:39.367Z,31.30
2018-01-27T10:23:39.387Z,31.80
2018-01-27T10:24:39.409Z,31.60
2018-01-27T10:25:39.420Z,32.90
2018-01-27T10:26:39.440Z,32.80
2018-01-27T10:27:39.457Z,32.60
2018-01-27T10:28:39.480Z,32.40
2018-01-27T10:29:39.493Z,32.20
2018-01-27T10:30:39.508Z,33.70
2018-01-27T10:31:39.528Z,32.50
2018-01-27T10:32:39.546Z,32.10
2018-01-27T10:33:39.562Z,29.30
2018-01-27T10:34:39.582Z,27.80
2018-01-27T10:35:39.600Z,28.50
2018-01-27T10:36:39.617Z,26.80
2018-01-27T10:37:39.633Z,26.30
2018-01-27T10:38:39.651Z,27.20
2018-01-27T10:39:39.670Z,27.30
2018-01-27T10:40:39.687Z,27.40
2018-01-27T10:41:39.705Z,28.60
2018-01-27T10:42:39.724Z,27.90
2018-01-27T10:43:39.744Z,28.50
2018-01-27T10:44:39.760Z,28.20
2018-01-27T10:45:39.780Z,28.90
2018-01-27T10:46:39.791Z,29.30
2018-01-27T10:47:39.814Z,26.90
2018-01-27T10:48:39.829Z,26.70
2018-01-27T10:49:39.851Z,28.10
2018-01-27T10:50:39.867Z,28.40
2018-01-27T10:51:39.885Z,29.30
2018-01-27T10:52:39.904Z,28.20
2018-01-27T10:53:39.919Z,28.60
2018-01-27T10:54:39.938Z,29.00
2018-01-27T10:55:39.977Z,27.70
2018-01-27T10:56:39.970Z,27.40
2018-01-27T10:57:39.992Z,27.50
2018-01-27T10:58:40.014Z,27.60
2018-01-27T10:59:40.029Z,26.70
2018-01-27T11:00:40.048Z,27.00
2018-01-27T11:01:40.065Z,28.00
2018-01-27T11:02:40.084Z,26.20
2018-01-27T11:03:40.103Z,26.40
2018-01-27T11:04:40.117Z,25.90
2018-01-27T11:05:40.138Z,25.90
2018-01-27T11:06:40.156Z,26.60
2018-01-27T11:07:40.174Z,26.20
2018-01-27T11:08:40.189Z,25.30
2018-01-27T11:09:40.209Z,26.50
2018-01-27T11:10:40.231Z,26.00
2018-01-27T11:11:40.247Z,24.30
2018-01-27T11:12:40.270Z,23.80
2018-01-27T11:13:40.285Z,22.80
2018-01-27T11:14:40.302Z,23.60
2018-01-27T11:15:40.322Z,23.70
2018-01-27T11:16:40.337Z,23.70
2018-01-27T11:17:40.357Z,24.10
2018-01-27T11:18:40.376Z,24.40
2018-01-27T11:19:40.399Z,24.30
2018-01-27T11:20:40.412Z,23.90
2018-01-27T11:21:40.434Z,24.10
2018-01-27T11:22:40.448Z,23.10
2018-01-27T11:23:40.467Z,23.80
2018-01-27T11:24:40.496Z,23.00
2018-01-27T11:25:40.505Z,23.60
2018-01-27T11:26:40.527Z,24.70
2018-01-27T11:27:40.544Z,24.70
2018-01-27T11:28:40.564Z,24.40
2018-01-27T11:29:40.617Z,23.00
2018-01-27T11:30:40.597Z,22.80
2018-01-27T11:31:40.618Z,22.20
2018-01-27T11:32:40.639Z,22.80
2018-01-27T11:33:40.654Z,23.70
2018-01-27T11:34:40.673Z,22.80
2018-01-27T11:35:40.697Z,22.80
2018-01-27T11:36:40.711Z,23.00
2018-01-27T11:37:40.730Z,23.30
2018-01-27T11:38:40.752Z,22.80
2018-01-27T11:39:40.776Z,22.30
2018-01-27T11:40:40.784Z,21.80
2018-01-27T11:41:40.800Z,21.50
2018-01-27T11:42:40.823Z,20.90
2018-01-27T11:43:40.858Z,21.30
2018-01-27T11:44:40.862Z,21.10
2018-01-27T11:45:40.885Z,22.10
2018-01-27T11:46:40.897Z,22.90
2018-01-27T11:47:40.916Z,23.50
2018-01-27T11:48:40.937Z,23.30
2018-01-27T11:49:40.957Z,24.40
2018-01-27T11:50:40.979Z,25.50
2018-01-27T11:51:41.012Z,24.50
2018-01-27T11:52:41.014Z,26.00
2018-01-27T11:53:41.054Z,27.50
2018-01-27T11:54:41.068Z,27.80
2018-01-27T11:55:41.086Z,28.30
2018-01-27T11:56:41.084Z,27.80
2018-01-27T11:57:41.107Z,28.60
2018-01-27T11:58:41.125Z,28.20
2018-01-27T11:59:41.141Z,27.90
2018-01-27T12:00:41.210Z,28.10
2018-01-27T12:01:41.193Z,27.60
2018-01-27T12:02:41.208Z,27.80
2018-01-27T12:03:41.222Z,27.10
2018-01-27T12:04:41.243Z,28.30
2018-01-27T12:05:41.254Z,27.30
2018-01-27T12:06:41.270Z,27.20
2018-01-27T12:07:41.292Z,27.10
2018-01-27T12:08:41.310Z,27.00
2018-01-27T12:09:41.332Z,27.00
2018-01-27T12:10:41.363Z,26.90
2018-01-27T12:11:41.370Z,27.90
2018-01-27T12:12:41.386Z,27.30
2018-01-27T12:13:41.420Z,25.90
2018-01-27T12:14:41.424Z,26.60
2018-01-27T12:15:41.438Z,24.50
2018-01-27T12:16:41.470Z,25.80
2018-01-27T12:17:41.478Z,25.60
2018-01-27T12:18:41.496Z,25.50
2018-01-27T12:19:41.537Z,25.90
2018-01-27T12:20:41.532Z,25.40
2018-01-27T12:21:41.550Z,24.10
2018-01-27T12:22:41.584Z,23.60
2018-01-27T12:23:41.589Z,24.80
2018-01-27T12:24:41.606Z,23.40
2018-01-27T12:25:41.626Z,24.00
2018-01-27T12:26:41.649Z,24.20
2018-01-27T12:27:42.380Z,24.30
2018-01-27T12:28:41.684Z,24.40
2018-01-27T12:29:41.704Z,22.70
2018-01-27T12:30:41.720Z,23.80
2018-01-27T12:31:41.743Z,23.30
2018-01-27T12:32:41.756Z,24.50
2018-01-27T12:33:41.791Z,23.90
2018-01-27T12:34:41.798Z,23.80
2018-01-27T12:35:41.818Z,24.60
2018-01-27T12:36:41.831Z,23.60
2018-01-27T12:37:41.852Z,24.20
2018-01-27T12:38:41.874Z,24.30
2018-01-27T12:39:41.892Z,23.20
2018-01-27T12:40:41.909Z,23.00
2018-01-27T12:41:41.928Z,24.40
2018-01-27T12:42:41.943Z,21.30
2018-01-27T12:43:41.961Z,21.30
2018-01-27T12:44:41.983Z,21.30
2018-01-27T12:45:42.003Z,21.40
2018-01-27T12:46:42.022Z,21.90
2018-01-27T12:47:42.043Z,21.10
2018-01-27T12:48:42.057Z,21.40
2018-01-27T12:49:42.079Z,20.80
2018-01-27T12:50:42.100Z,20.70
2018-01-27T12:51:42.119Z,20.60
2018-01-27T12:52:42.133Z,21.50